createdAt,value
2023-03-30T03:08:11.163Z,81.90
2023-03-30T03:10:40.232Z,82.56
2023-03-30T03:13:09.563Z,83.60
2023-03-30T03:15:39.239Z,83.72
2023-03-30T03:18:09.096Z,83.68
2023-03-30T03:20:38.313Z,83.44
2023-03-30T03:23:07.961Z,83.33
2023-03-30T03:25:38.732Z,83.18
2023-03-30T03:28:08.091Z,82.79
2023-03-30T03:30:39.060Z,82.43
2023-03-30T03:33:08.550Z,82.50
2023-03-30T03:35:40.801Z,81.98
2023-03-30T03:38:09.914Z,82.03
2023-03-30T03:40:40.544Z,81.25
2023-03-30T03:43:09.918Z,81.09
2023-03-30T03:45:39.987Z,80.98
2023-03-30T03:48:12.555Z,82.03
2023-03-30T03:50:41.985Z,81.92
2023-03-30T03:53:11.085Z,82.22
2023-03-30T03:55:43.460Z,82.90
2023-03-30T03:58:12.585Z,82.89
2023-03-30T04:00:42.074Z,82.63
2023-03-30T04:03:12.754Z,82.39
2023-03-30T04:05:42.541Z,82.01
2023-03-30T04:08:12.321Z,83.43
2023-03-30T04:10:44.181Z,83.43
2023-03-30T04:13:13.350Z,83.38
2023-03-30T04:15:42.522Z,83.01
2023-03-30T04:18:11.695Z,83.21
2023-03-30T04:20:40.796Z,81.07
2023-03-30T04:23:10.202Z,80.24
2023-03-30T04:25:40.219Z,79.77
2023-03-30T04:28:12.048Z,79.38
2023-03-30T04:30:41.405Z,78.55
2023-03-30T04:33:10.576Z,78.05
2023-03-30T04:35:39.670Z,77.72
2023-03-30T04:38:08.969Z,77.52
2023-03-30T04:40:38.531Z,78.42
2023-03-30T04:43:07.783Z,78.46
2023-03-30T04:45:38.645Z,78.53
2023-03-30T04:48:07.954Z,79.19
2023-03-30T04:50:37.193Z,79.69
2023-03-30T04:53:06.292Z,81.33
2023-03-30T04:55:35.475Z,82.43
2023-03-30T04:58:04.746Z,80.78
2023-03-30T05:00:33.888Z,80.38
2023-03-30T05:03:06.565Z,79.59
2023-03-30T05:05:37.001Z,79.07
2023-03-30T05:08:06.572Z,79.04
2023-03-30T05:10:36.501Z,78.74
2023-03-30T05:13:05.729Z,79.17
2023-03-30T05:15:37.733Z,78.53
2023-03-30T05:18:08.540Z,78.40
2023-03-30T05:20:37.814Z,78.81
2023-03-30T05:23:07.180Z,79.21
2023-03-30T05:25:36.320Z,81.28
2023-03-30T05:28:05.525Z,79.08
2023-03-30T05:30:34.738Z,78.24
2023-03-30T05:33:03.886Z,78.82
2023-03-30T05:35:34.623Z,77.55
2023-03-30T05:38:05.586Z,77.08
2023-03-30T05:40:34.696Z,78.29
2023-03-30T05:43:04.244Z,79.85
2023-03-30T05:45:33.500Z,79.54
2023-03-30T05:48:02.693Z,81.58
2023-03-30T05:50:31.815Z,78.85
2023-03-30T05:53:02.475Z,79.46
2023-03-30T05:55:31.708Z,77.50
2023-03-30T05:58:01.191Z,77.55
2023-03-30T06:00:33.737Z,79.03
2023-03-30T06:03:02.984Z,78.15
2023-03-30T06:05:34.265Z,78.07
2023-03-30T06:08:05.278Z,77.03
2023-03-30T06:10:34.427Z,77.90
2023-03-30T06:13:04.280Z,79.09
2023-03-30T06:15:35.216Z,81.64
2023-03-30T06:18:05.619Z,79.73
2023-03-30T06:20:36.537Z,80.24
2023-03-30T06:23:07.460Z,78.41
2023-03-30T06:25:37.278Z,78.82
2023-03-30T06:28:06.431Z,79.75
2023-03-30T06:30:35.653Z,80.94
2023-03-30T06:33:04.770Z,80.77
2023-03-30T06:35:33.952Z,79.21
2023-03-30T06:38:03.129Z,79.78
2023-03-30T06:40:34.089Z,81.10
2023-03-30T06:43:03.349Z,82.24
2023-03-30T06:45:32.511Z,76.72
2023-03-30T06:48:01.849Z,76.49
2023-03-30T06:50:31.021Z,76.93
2023-03-30T06:53:00.389Z,77.94
2023-03-30T06:55:29.603Z,78.34
2023-03-30T06:58:00.382Z,80.19
2023-03-30T07:00:30.211Z,79.49
2023-03-30T07:02:59.735Z,77.38
2023-03-30T07:05:29.270Z,77.46
2023-03-30T07:07:58.785Z,77.79
2023-03-30T07:10:28.741Z,80.31
2023-03-30T07:12:59.940Z,79.59
2023-03-30T07:15:29.276Z,78.58
2023-03-30T07:17:58.569Z,79.07
2023-03-30T07:20:27.895Z,80.81
2023-03-30T07:22:57.080Z,80.83
2023-03-30T07:25:26.315Z,81.16
2023-03-30T07:27:55.765Z,81.76
2023-03-30T07:30:26.613Z,81.11
2023-03-30T07:32:58.194Z,80.25
2023-03-30T07:35:34.478Z,78.84
2023-03-30T07:38:04.861Z,80.20
2023-03-30T07:40:38.686Z,81.04
2023-03-30T07:43:08.345Z,80.07
2023-03-30T07:45:39.376Z,80.23
2023-03-30T07:48:08.641Z,80.43
2023-03-30T07:50:38.668Z,80.50
2023-03-30T07:53:08.257Z,80.46
2023-03-30T07:55:38.022Z,79.57
2023-03-30T07:58:08.281Z,79.63
2023-03-30T08:00:38.951Z,80.98
2023-03-30T08:03:08.823Z,81.37
2023-03-30T08:05:41.035Z,81.16
2023-03-30T08:08:11.192Z,80.61
2023-03-30T08:10:40.253Z,78.20
2023-03-30T08:13:11.290Z,78.94
2023-03-30T08:15:42.175Z,78.86
2023-03-30T08:18:13.345Z,79.43
2023-03-30T08:20:43.930Z,78.25
2023-03-30T08:23:14.317Z,78.23
2023-03-30T08:25:44.702Z,78.73
2023-03-30T08:28:15.856Z,76.93
2023-03-30T08:30:46.580Z,78.00
2023-03-30T08:33:16.383Z,78.01
2023-03-30T08:35:47.037Z,78.64
2023-03-30T08:38:17.973Z,79.18
2023-03-30T08:40:49.202Z,79.39
2023-03-30T08:43:35.456Z,80.04
